sim
Sign-in with your pilot id or email,
or register
Callsign
Passwort

Schedule Details

Flight Number: DLH2436
Departure: Munich Airport (EDDM) at 07:00
Arrival: Copenhagen Airport (EKCH) at 08:40
Route: Lufthansa Passenger Schedule. Enter filed route here before submitting Pirep.

Weather Information
Getting current METAR information for EDDM 010350Z 07001KT 0700 R08L/0800N R08R/0500N FG FEW001 03/03 Q1010 BECMG 0500 BKN001
Getting current METAR information for EKCH 010350Z AUTO 09011KT 9999 NCD 13/11 Q1012 NOSIG

Schedule Frequency

Route Map